sensor_id;sensor_type;location;lat;lon;timestamp;pressure;altitude;pressure_sealevel;temperature
15333;BMP180;7766;51.534;6.722;2023-05-23T00:00:33;101116.69;;;16.98
15333;BMP180;7766;51.534;6.722;2023-05-23T00:01:36;101115.56;;;17.11
15333;BMP180;7766;51.534;6.722;2023-05-23T00:02:37;101113.09;;;17.16
15333;BMP180;7766;51.534;6.722;2023-05-23T00:03:38;101113.97;;;17.04
15333;BMP180;7766;51.534;6.722;2023-05-23T00:04:40;101115.03;;;16.97
15333;BMP180;7766;51.534;6.722;2023-05-23T00:05:42;101114.81;;;16.98
15333;BMP180;7766;51.534;6.722;2023-05-23T00:06:43;101112.81;;;16.94
15333;BMP180;7766;51.534;6.722;2023-05-23T00:07:49;101113.97;;;17.04
15333;BMP180;7766;51.534;6.722;2023-05-23T00:08:50;101117.22;;;17.06
15333;BMP180;7766;51.534;6.722;2023-05-23T00:09:51;101123.16;;;17.08
15333;BMP180;7766;51.534;6.722;2023-05-23T00:10:52;101118.78;;;17.19
15333;BMP180;7766;51.534;6.722;2023-05-23T00:11:53;101120.66;;;17.13
15333;BMP180;7766;51.534;6.722;2023-05-23T00:12:54;101118.84;;;17.13
15333;BMP180;7766;51.534;6.722;2023-05-23T00:13:57;101118.41;;;17.16
15333;BMP180;7766;51.534;6.722;2023-05-23T00:15:00;101118.78;;;17.19
15333;BMP180;7766;51.534;6.722;2023-05-23T00:16:02;101127.00;;;17.12
15333;BMP180;7766;51.534;6.722;2023-05-23T00:17:04;101116.91;;;17.26
15333;BMP180;7766;51.534;6.722;2023-05-23T00:18:05;101115.06;;;17.27
15333;BMP180;7766;51.534;6.722;2023-05-23T00:19:09;101114.72;;;17.17
15333;BMP180;7766;51.534;6.722;2023-05-23T00:20:10;101115.69;;;16.92
15333;BMP180;7766;51.534;6.722;2023-05-23T00:21:15;101113.84;;;16.80
15333;BMP180;7766;51.534;6.722;2023-05-23T00:22:19;101114.69;;;16.81
15333;BMP180;7766;51.534;6.722;2023-05-23T00:23:20;101121.84;;;16.86
15333;BMP180;7766;51.534;6.722;2023-05-23T00:24:22;101117.91;;;16.83
15333;BMP180;7766;51.534;6.722;2023-05-23T00:25:23;101116.56;;;16.67
15333;BMP180;7766;51.534;6.722;2023-05-23T00:26:24;101124.31;;;16.69
15333;BMP180;7766;51.534;6.722;2023-05-23T00:27:29;101109.59;;;16.73
15333;BMP180;7766;51.534;6.722;2023-05-23T00:28:30;101110.44;;;16.67
15333;BMP180;7766;51.534;6.722;2023-05-23T00:29:31;101117.22;;;16.63
15333;BMP180;7766;51.534;6.722;2023-05-23T00:30:33;101117.81;;;16.65
15333;BMP180;7766;51.534;6.722;2023-05-23T00:31:34;101113.91;;;16.67
15333;BMP180;7766;51.534;6.722;2023-05-23T00:32:35;101120.66;;;16.70
15333;BMP180;7766;51.534;6.722;2023-05-23T00:33:36;101122.69;;;16.68
15333;BMP180;7766;51.534;6.722;2023-05-23T00:34:37;101105.59;;;16.58
15333;BMP180;7766;51.534;6.722;2023-05-23T00:35:38;101110.84;;;16.64
15333;BMP180;7766;51.534;6.722;2023-05-23T00:36:39;101111.69;;;16.65
15333;BMP180;7766;51.534;6.722;2023-05-23T00:37:41;101115.38;;;16.57
15333;BMP180;7766;51.534;6.722;2023-05-23T00:38:43;101120.69;;;16.57
15333;BMP180;7766;51.534;6.722;2023-05-23T00:39:48;101124.78;;;16.53
15333;BMP180;7766;51.534;6.722;2023-05-23T00:40:49;101116.41;;;16.63
15333;BMP180;7766;51.534;6.722;2023-05-23T00:41:50;101119.22;;;16.67
15333;BMP180;7766;51.534;6.722;2023-05-23T00:42:52;101121.28;;;16.66
15333;BMP180;7766;51.534;6.722;2023-05-23T00:43:53;101130.84;;;16.73
15333;BMP180;7766;51.534;6.722;2023-05-23T00:44:54;101126.34;;;16.73
15333;BMP180;7766;51.534;6.722;2023-05-23T00:45:55;101124.28;;;16.75
15333;BMP180;7766;51.534;6.722;2023-05-23T00:46:57;101121.25;;;16.72
15333;BMP180;7766;51.534;6.722;2023-05-23T00:47:58;101129.19;;;16.78
15333;BMP180;7766;51.534;6.722;2023-05-23T00:49:01;101126.50;;;16.84
15333;BMP180;7766;51.534;6.722;2023-05-23T00:50:02;101119.56;;;16.83
15333;BMP180;7766;51.534;6.722;2023-05-23T00:51:03;101115.06;;;16.90
15333;BMP180;7766;51.534;6.722;2023-05-23T00:52:04;101121.34;;;17.02
15333;BMP180;7766;51.534;6.722;2023-05-23T00:53:05;101123.31;;;17.13
15333;BMP180;7766;51.534;6.722;2023-05-23T00:54:06;101127.78;;;17.18
15333;BMP180;7766;51.534;6.722;2023-05-23T00:55:08;101122.59;;;17.00
15333;BMP180;7766;51.534;6.722;2023-05-23T00:56:10;101127.91;;;16.93
15333;BMP180;7766;51.534;6.722;2023-05-23T00:57:12;101123.34;;;17.06
15333;BMP180;7766;51.534;6.722;2023-05-23T00:58:13;101127.66;;;17.01
15333;BMP180;7766;51.534;6.722;2023-05-23T00:59:15;101126.56;;;17.15
15333;BMP180;7766;51.534;6.722;2023-05-23T01:00:17;101120.41;;;17.20
15333;BMP180;7766;51.534;6.722;2023-05-23T01:01:20;101119.00;;;17.18
15333;BMP180;7766;51.534;6.722;2023-05-23T01:02:21;101127.59;;;17.14
15333;BMP180;7766;51.534;6.722;2023-05-23T01:03:22;101120.44;;;17.14
15333;BMP180;7766;51.534;6.722;2023-05-23T01:04:23;101122.97;;;17.03
15333;BMP180;7766;51.534;6.722;2023-05-23T01:05:25;101124.72;;;17.15
15333;BMP180;7766;51.534;6.722;2023-05-23T01:06:26;101125.13;;;17.18
15333;BMP180;7766;51.534;6.722;2023-05-23T01:07:30;101126.66;;;17.02
15333;BMP180;7766;51.534;6.722;2023-05-23T01:08:31;101124.41;;;17.05
15333;BMP180;7766;51.534;6.722;2023-05-23T01:09:32;101126.31;;;16.92
15333;BMP180;7766;51.534;6.722;2023-05-23T01:10:33;101123.88;;;16.78
15333;BMP180;7766;51.534;6.722;2023-05-23T01:11:42;101125.91;;;16.89
15333;BMP180;7766;51.534;6.722;2023-05-23T01:14:10;101119.75;;;16.95
15333;BMP180;7766;51.534;6.722;2023-05-23T01:15:14;101112.03;;;16.87
15333;BMP180;7766;51.534;6.722;2023-05-23T01:16:31;101116.56;;;16.74
15333;BMP180;7766;51.534;6.722;2023-05-23T01:18:05;101117.56;;;16.73
15333;BMP180;7766;51.534;6.722;2023-05-23T01:20:46;101117.16;;;16.76
15333;BMP180;7766;51.534;6.722;2023-05-23T01:21:52;101123.13;;;16.65
15333;BMP180;7766;51.534;6.722;2023-05-23T01:24:05;101121.47;;;16.64
15333;BMP180;7766;51.534;6.722;2023-05-23T01:26:39;101125.31;;;16.74
15333;BMP180;7766;51.534;6.722;2023-05-23T01:27:43;101123.72;;;16.67
15333;BMP180;7766;51.534;6.722;2023-05-23T01:28:49;101128.59;;;16.70
15333;BMP180;7766;51.534;6.722;2023-05-23T01:29:56;101130.84;;;16.73
15333;BMP180;7766;51.534;6.722;2023-05-23T01:30:58;101127.53;;;16.83
15333;BMP180;7766;51.534;6.722;2023-05-23T01:32:01;101123.44;;;16.87
15333;BMP180;7766;51.534;6.722;2023-05-23T01:33:04;101126.72;;;16.83
15333;BMP180;7766;51.534;6.722;2023-05-23T01:34:06;101129.16;;;16.91
15333;BMP180;7766;51.534;6.722;2023-05-23T01:35:08;101130.16;;;16.96
15333;BMP180;7766;51.534;6.722;2023-05-23T01:36:12;101127.19;;;16.74
15333;BMP180;7766;51.534;6.722;2023-05-23T01:37:16;101123.47;;;16.75
15333;BMP180;7766;51.534;6.722;2023-05-23T01:38:19;101119.78;;;16.88
15333;BMP180;7766;51.534;6.722;2023-05-23T01:39:20;101121.41;;;16.89
15333;BMP180;7766;51.534;6.722;2023-05-23T01:40:22;101132.63;;;16.91
15333;BMP180;7766;51.534;6.722;2023-05-23T01:41:23;101128.38;;;16.78
15333;BMP180;7766;51.534;6.722;2023-05-23T01:42:24;101124.53;;;16.74
15333;BMP180;7766;51.534;6.722;2023-05-23T01:43:27;101119.81;;;16.76
15333;BMP180;7766;51.534;6.722;2023-05-23T01:44:28;101128.38;;;16.71
15333;BMP180;7766;51.534;6.722;2023-05-23T01:45:30;101122.91;;;16.67
15333;BMP180;7766;51.534;6.722;2023-05-23T01:46:32;101130.44;;;16.69
15333;BMP180;7766;51.534;6.722;2023-05-23T01:47:35;101128.59;;;16.70
15333;BMP180;7766;51.534;6.722;2023-05-23T01:48:38;101138.19;;;16.71
15333;BMP180;7766;51.534;6.722;2023-05-23T01:49:39;101137.81;;;16.61
15333;BMP180;7766;51.534;6.722;2023-05-23T01:50:42;101136.97;;;16.67
15333;BMP180;7766;51.534;6.722;2023-05-23T01:51:46;101134.31;;;16.73
15333;BMP180;7766;51.534;6.722;2023-05-23T01:52:49;101137.78;;;16.74
15333;BMP180;7766;51.534;6.722;2023-05-23T01:53:50;101141.44;;;16.73
15333;BMP180;7766;51.534;6.722;2023-05-23T01:54:52;101139.88;;;16.59
15333;BMP180;7766;51.534;6.722;2023-05-23T01:55:53;101142.28;;;16.67
15333;BMP180;7766;51.534;6.722;2023-05-23T01:56:58;101143.31;;;16.66
15333;BMP180;7766;51.534;6.722;2023-05-23T01:58:01;101138.22;;;16.65
15333;BMP180;7766;51.534;6.722;2023-05-23T01:59:02;101138.84;;;16.60
15333;BMP180;7766;51.534;6.722;2023-05-23T02:00:05;101142.75;;;16.58
15333;BMP180;7766;51.534;6.722;2023-05-23T02:01:06;101144.75;;;16.68
15333;BMP180;7766;51.534;6.722;2023-05-23T02:02:07;101137.41;;;16.64
15333;BMP180;7766;51.534;6.722;2023-05-23T02:03:08;101150.91;;;16.56
15333;BMP180;7766;51.534;6.722;2023-05-23T02:04:11;101146.19;;;16.65
15333;BMP180;7766;51.534;6.722;2023-05-23T02:05:13;101144.75;;;16.62
15333;BMP180;7766;51.534;6.722;2023-05-23T02:06:14;101146.41;;;16.57
15333;BMP180;7766;51.534;6.722;2023-05-23T02:07:15;101147.41;;;16.56
15333;BMP180;7766;51.534;6.722;2023-05-23T02:08:16;101146.41;;;16.51
15333;BMP180;7766;51.534;6.722;2023-05-23T02:09:17;101145.19;;;16.53
15333;BMP180;7766;51.534;6.722;2023-05-23T02:10:18;101145.41;;;16.52
15333;BMP180;7766;51.534;6.722;2023-05-23T02:11:19;101143.56;;;16.46
15333;BMP180;7766;51.534;6.722;2023-05-23T02:12:22;101140.69;;;16.53
15333;BMP180;7766;51.534;6.722;2023-05-23T02:13:22;101143.56;;;16.46
15333;BMP180;7766;51.534;6.722;2023-05-23T02:14:23;101148.88;;;16.52
15333;BMP180;7766;51.534;6.722;2023-05-23T02:15:26;101141.75;;;16.40
15333;BMP180;7766;51.534;6.722;2023-05-23T02:16:27;101152.16;;;16.41
15333;BMP180;7766;51.534;6.722;2023-05-23T02:17:28;101142.75;;;16.52
15333;BMP180;7766;51.534;6.722;2023-05-23T02:18:29;101148.66;;;16.53
15333;BMP180;7766;51.534;6.722;2023-05-23T02:19:30;101143.34;;;16.60
15333;BMP180;7766;51.534;6.722;2023-05-23T02:20:31;101146.19;;;16.58
15333;BMP180;7766;51.534;6.722;2023-05-23T02:21:31;101147.63;;;16.54
15333;BMP180;7766;51.534;6.722;2023-05-23T02:22:32;101146.63;;;16.55
15333;BMP180;7766;51.534;6.722;2023-05-23T02:23:33;101146.00;;;16.53
15333;BMP180;7766;51.534;6.722;2023-05-23T02:24:34;101145.19;;;16.53
15333;BMP180;7766;51.534;6.722;2023-05-23T02:25:35;101146.63;;;16.43
15333;BMP180;7766;51.534;6.722;2023-05-23T02:26:36;101159.53;;;16.33
15333;BMP180;7766;51.534;6.722;2023-05-23T02:27:37;101156.28;;;16.31
15333;BMP180;7766;51.534;6.722;2023-05-23T02:28:38;101154.22;;;16.27
15333;BMP180;7766;51.534;6.722;2023-05-23T02:29:39;101156.47;;;16.30
15333;BMP180;7766;51.534;6.722;2023-05-23T02:30:40;101163.59;;;16.29
15333;BMP180;7766;51.534;6.722;2023-05-23T02:31:41;101160.94;;;16.29
15333;BMP180;7766;51.534;6.722;2023-05-23T02:32:42;101161.34;;;16.39
15333;BMP180;7766;51.534;6.722;2023-05-23T02:33:43;101156.28;;;16.31
15333;BMP180;7766;51.534;6.722;2023-05-23T02:34:44;101162.41;;;16.25
15333;BMP180;7766;51.534;6.722;2023-05-23T02:35:49;101159.94;;;16.36
15333;BMP180;7766;51.534;6.722;2023-05-23T02:36:51;101158.91;;;16.44
15333;BMP180;7766;51.534;6.722;2023-05-23T02:37:52;101165.22;;;16.43
15333;BMP180;7766;51.534;6.722;2023-05-23T02:38:53;101165.63;;;16.40
15333;BMP180;7766;51.534;6.722;2023-05-23T02:39:54;101156.88;;;16.27
15333;BMP180;7766;51.534;6.722;2023-05-23T02:40:56;101164.84;;;16.33
15333;BMP180;7766;51.534;6.722;2023-05-23T02:41:57;101165.25;;;16.30
15333;BMP180;7766;51.534;6.722;2023-05-23T02:42:58;101167.09;;;16.23
15333;BMP180;7766;51.534;6.722;2023-05-23T02:44:00;101166.47;;;16.21
15333;BMP180;7766;51.534;6.722;2023-05-23T02:45:01;101159.56;;;16.20
15333;BMP180;7766;51.534;6.722;2023-05-23T02:46:02;101172.19;;;16.19
15333;BMP180;7766;51.534;6.722;2023-05-23T02:47:03;101167.91;;;16.11
15333;BMP180;7766;51.534;6.722;2023-05-23T02:48:04;101171.38;;;16.12
15333;BMP180;7766;51.534;6.722;2023-05-23T02:49:05;101158.72;;;16.14
15333;BMP180;7766;51.534;6.722;2023-05-23T02:50:06;101166.69;;;16.14
15333;BMP180;7766;51.534;6.722;2023-05-23T02:51:07;101168.53;;;16.26
15333;BMP180;7766;51.534;6.722;2023-05-23T02:52:08;101171.81;;;16.15
15333;BMP180;7766;51.534;6.722;2023-05-23T02:53:09;101171.00;;;16.21
15333;BMP180;7766;51.534;6.722;2023-05-23T02:54:10;101168.53;;;16.20
15333;BMP180;7766;51.534;6.722;2023-05-23T02:55:11;101176.06;;;16.22
15333;BMP180;7766;51.534;6.722;2023-05-23T02:56:12;101175.88;;;16.18
15333;BMP180;7766;51.534;6.722;2023-05-23T02:57:13;101175.47;;;16.14
15333;BMP180;7766;51.534;6.722;2023-05-23T02:58:14;101177.09;;;16.15
15333;BMP180;7766;51.534;6.722;2023-05-23T02:59:16;101177.28;;;16.14
15333;BMP180;7766;51.534;6.722;2023-05-23T03:00:17;101166.31;;;16.10
15333;BMP180;7766;51.534;6.722;2023-05-23T03:01:19;101173.44;;;16.10
15333;BMP180;7766;51.534;6.722;2023-05-23T03:02:20;101165.47;;;16.10
15333;BMP180;7766;51.534;6.722;2023-05-23T03:03:21;101171.38;;;16.12
15333;BMP180;7766;51.534;6.722;2023-05-23T03:04:22;101168.13;;;16.10
15333;BMP180;7766;51.534;6.722;2023-05-23T03:05:23;101162.84;;;16.10
15333;BMP180;7766;51.534;6.722;2023-05-23T03:06:24;101172.22;;;16.12
15333;BMP180;7766;51.534;6.722;2023-05-23T03:07:27;101171.59;;;16.04
15333;BMP180;7766;51.534;6.722;2023-05-23T03:08:28;101169.34;;;16.01
15333;BMP180;7766;51.534;6.722;2023-05-23T03:09:29;101180.16;;;15.93
15333;BMP180;7766;51.534;6.722;2023-05-23T03:10:30;101180.19;;;16.00
15333;BMP180;7766;51.534;6.722;2023-05-23T03:11:31;101175.06;;;15.98
15333;BMP180;7766;51.534;6.722;2023-05-23T03:12:32;101179.75;;;15.96
15333;BMP180;7766;51.534;6.722;2023-05-23T03:13:34;101181.19;;;16.05
15333;BMP180;7766;51.534;6.722;2023-05-23T03:14:35;101181.78;;;16.01
15333;BMP180;7766;51.534;6.722;2023-05-23T03:15:36;101178.13;;;16.08
15333;BMP180;7766;51.534;6.722;2023-05-23T03:16:37;101183.63;;;16.13
15333;BMP180;7766;51.534;6.722;2023-05-23T03:17:38;101187.50;;;16.04
15333;BMP180;7766;51.534;6.722;2023-05-23T03:18:39;101185.28;;;16.07
15333;BMP180;7766;51.534;6.722;2023-05-23T03:19:41;101188.94;;;16.13
15333;BMP180;7766;51.534;6.722;2023-05-23T03:20:42;101190.16;;;16.04
15333;BMP180;7766;51.534;6.722;2023-05-23T03:21:43;101185.69;;;16.04
15333;BMP180;7766;51.534;6.722;2023-05-23T03:22:44;101189.34;;;16.10
15333;BMP180;7766;51.534;6.722;2023-05-23T03:23:45;101182.00;;;15.99
15333;BMP180;7766;51.534;6.722;2023-05-23T03:24:46;101196.25;;;15.98
15333;BMP180;7766;51.534;6.722;2023-05-23T03:25:48;101192.19;;;15.96
15333;BMP180;7766;51.534;6.722;2023-05-23T03:26:49;101190.97;;;15.92
15333;BMP180;7766;51.534;6.722;2023-05-23T03:27:50;101197.31;;;15.97
15333;BMP180;7766;51.534;6.722;2023-05-23T03:28:51;101196.47;;;16.09
15333;BMP180;7766;51.534;6.722;2023-05-23T03:29:52;101195.25;;;15.99
15333;BMP180;7766;51.534;6.722;2023-05-23T03:30:53;101202.59;;;16.04
15333;BMP180;7766;51.534;6.722;2023-05-23T03:31:54;101200.34;;;16.01
15333;BMP180;7766;51.534;6.722;2023-05-23T03:32:55;101202.38;;;15.92
15333;BMP180;7766;51.534;6.722;2023-05-23T03:33:56;101202.16;;;15.88
15333;BMP180;7766;51.534;6.722;2023-05-23T03:34:57;101208.47;;;15.87
15333;BMP180;7766;51.534;6.722;2023-05-23T03:35:58;101204.66;;;15.89
15333;BMP180;7766;51.534;6.722;2023-05-23T03:36:59;101209.53;;;15.98
15333;BMP180;7766;51.534;6.722;2023-05-23T03:38:00;101204.03;;;15.93
15333;BMP180;7766;51.534;6.722;2023-05-23T03:39:01;101202.19;;;15.94
15333;BMP180;7766;51.534;6.722;2023-05-23T03:40:03;101201.13;;;15.88
15333;BMP180;7766;51.534;6.722;2023-05-23T03:41:04;101204.66;;;15.89
15333;BMP180;7766;51.534;6.722;2023-05-23T03:42:05;101211.94;;;15.87
15333;BMP180;7766;51.534;6.722;2023-05-23T03:43:07;101204.38;;;15.78
15333;BMP180;7766;51.534;6.722;2023-05-23T03:44:08;101209.94;;;15.89
15333;BMP180;7766;51.534;6.722;2023-05-23T03:45:09;101212.38;;;15.90
15333;BMP180;7766;51.534;6.722;2023-05-23T03:46:10;101212.34;;;15.84
15333;BMP180;7766;51.534;6.722;2023-05-23T03:47:11;101203.78;;;15.88
15333;BMP180;7766;51.534;6.722;2023-05-23T03:48:12;101212.34;;;15.78
15333;BMP180;7766;51.534;6.722;2023-05-23T03:49:13;101209.28;;;15.74
15333;BMP180;7766;51.534;6.722;2023-05-23T03:50:14;101210.28;;;15.80
15333;BMP180;7766;51.534;6.722;2023-05-23T03:51:16;101206.63;;;15.81
15333;BMP180;7766;51.534;6.722;2023-05-23T03:52:17;101213.75;;;15.74
15333;BMP180;7766;51.534;6.722;2023-05-23T03:53:18;101217.41;;;15.79
15333;BMP180;7766;51.534;6.722;2023-05-23T03:54:18;101211.72;;;15.82
15333;BMP180;7766;51.534;6.722;2023-05-23T03:55:20;101205.25;;;15.91
15333;BMP180;7766;51.534;6.722;2023-05-23T03:56:22;101216.66;;;15.91
15333;BMP180;7766;51.534;6.722;2023-05-23T03:57:23;101223.19;;;15.89
15333;BMP180;7766;51.534;6.722;2023-05-23T03:58:24;101218.06;;;15.81
15333;BMP180;7766;51.534;6.722;2023-05-23T03:59:25;101224.41;;;15.93
15333;BMP180;7766;51.534;6.722;2023-05-23T04:00:26;101226.03;;;15.94
15333;BMP180;7766;51.534;6.722;2023-05-23T04:01:27;101227.47;;;15.96
15333;BMP180;7766;51.534;6.722;2023-05-23T04:02:28;101220.72;;;16.00
15333;BMP180;7766;51.534;6.722;2023-05-23T04:03:29;101227.47;;;16.09
15333;BMP180;7766;51.534;6.722;2023-05-23T04:04:32;101221.38;;;16.02
15333;BMP180;7766;51.534;6.722;2023-05-23T04:05:33;101235.63;;;16.07
15333;BMP180;7766;51.534;6.722;2023-05-23T04:06:34;101218.50;;;16.04
15333;BMP180;7766;51.534;6.722;2023-05-23T04:07:36;-14972.22;;;15.94
15333;BMP180;7766;51.534;6.722;2023-05-23T04:08:37;-18060.69;;;-132.42
15333;BMP180;7766;51.534;6.722;2023-05-23T04:09:41;66029.41;;;-132.42
15333;BMP180;7766;51.534;6.722;2023-05-23T04:10:42;66029.41;;;-132.42
15333;BMP180;7766;51.534;6.722;2023-05-23T04:11:43;66029.41;;;-132.42
15333;BMP180;7766;51.534;6.722;2023-05-23T04:12:44;66029.41;;;-132.42
15333;BMP180;7766;51.534;6.722;2023-05-23T04:13:47;66029.41;;;-132.42
15333;BMP180;7766;51.534;6.722;2023-05-23T04:14:48;66029.41;;;-132.42
15333;BMP180;7766;51.534;6.722;2023-05-23T04:15:49;66029.41;;;-132.42
15333;BMP180;7766;51.534;6.722;2023-05-23T04:16:52;66029.41;;;-132.42
15333;BMP180;7766;51.534;6.722;2023-05-23T04:17:53;66029.41;;;-132.42
15333;BMP180;7766;51.534;6.722;2023-05-23T04:18:54;66029.41;;;-132.42
15333;BMP180;7766;51.534;6.722;2023-05-23T04:19:56;66029.41;;;-132.42
15333;BMP180;7766;51.534;6.722;2023-05-23T04:20:56;66029.41;;;-132.42
15333;BMP180;7766;51.534;6.722;2023-05-23T04:21:57;66029.41;;;-132.42
15333;BMP180;7766;51.534;6.722;2023-05-23T04:22:59;66029.41;;;-132.42
15333;BMP180;7766;51.534;6.722;2023-05-23T04:24:00;66029.41;;;-132.42
15333;BMP180;7766;51.534;6.722;2023-05-23T04:25:02;66029.41;;;-132.42
15333;BMP180;7766;51.534;6.722;2023-05-23T04:26:03;66029.41;;;-132.42
15333;BMP180;7766;51.534;6.722;2023-05-23T04:27:09;66029.41;;;-132.42
15333;BMP180;7766;51.534;6.722;2023-05-23T04:28:11;66029.41;;;-132.42
15333;BMP180;7766;51.534;6.722;2023-05-23T04:29:12;66029.41;;;-132.42
15333;BMP180;7766;51.534;6.722;2023-05-23T04:30:13;66029.41;;;-132.42
15333;BMP180;7766;51.534;6.722;2023-05-23T04:31:17;66029.41;;;-132.42
15333;BMP180;7766;51.534;6.722;2023-05-23T04:32:18;66029.41;;;-132.42
15333;BMP180;7766;51.534;6.722;2023-05-23T04:33:22;66029.41;;;-132.42
15333;BMP180;7766;51.534;6.722;2023-05-23T04:34:23;66029.41;;;-132.42
15333;BMP180;7766;51.534;6.722;2023-05-23T04:35:26;66029.41;;;-132.42
15333;BMP180;7766;51.534;6.722;2023-05-23T04:36:28;66029.41;;;-132.42
15333;BMP180;7766;51.534;6.722;2023-05-23T04:37:30;66029.41;;;-132.42
15333;BMP180;7766;51.534;6.722;2023-05-23T04:38:32;66029.41;;;-132.42
15333;BMP180;7766;51.534;6.722;2023-05-23T04:39:33;66029.41;;;-132.42
15333;BMP180;7766;51.534;6.722;2023-05-23T04:40:34;66029.41;;;-132.42
15333;BMP180;7766;51.534;6.722;2023-05-23T04:41:35;66029.41;;;-132.42
15333;BMP180;7766;51.534;6.722;2023-05-23T04:42:36;66029.41;;;-132.42
15333;BMP180;7766;51.534;6.722;2023-05-23T04:43:37;66029.41;;;-132.42
15333;BMP180;7766;51.534;6.722;2023-05-23T04:44:42;66029.41;;;-132.42
15333;BMP180;7766;51.534;6.722;2023-05-23T04:45:43;66029.41;;;-132.42
15333;BMP180;7766;51.534;6.722;2023-05-23T04:46:44;66029.41;;;-132.42
15333;BMP180;7766;51.534;6.722;2023-05-23T04:47:45;66029.41;;;-132.42
15333;BMP180;7766;51.534;6.722;2023-05-23T04:48:47;66029.41;;;-132.42
15333;BMP180;7766;51.534;6.722;2023-05-23T04:49:48;66029.41;;;-132.42
15333;BMP180;7766;51.534;6.722;2023-05-23T04:50:49;66029.41;;;-132.42
15333;BMP180;7766;51.534;6.722;2023-05-23T04:51:52;66029.41;;;-132.42
15333;BMP180;7766;51.534;6.722;2023-05-23T04:52:52;66029.41;;;-132.42
15333;BMP180;7766;51.534;6.722;2023-05-23T04:53:53;66029.41;;;-132.42
15333;BMP180;7766;51.534;6.722;2023-05-23T04:54:55;66029.41;;;-132.42
15333;BMP180;7766;51.534;6.722;2023-05-23T04:55:56;66029.41;;;-132.42
15333;BMP180;7766;51.534;6.722;2023-05-23T04:56:57;66029.41;;;-132.42
15333;BMP180;7766;51.534;6.722;2023-05-23T04:57:58;66029.41;;;-132.42
15333;BMP180;7766;51.534;6.722;2023-05-23T04:58:59;66029.41;;;-132.42
15333;BMP180;7766;51.534;6.722;2023-05-23T05:00:01;66029.41;;;-132.42
15333;BMP180;7766;51.534;6.722;2023-05-23T05:01:03;66029.41;;;-132.42
15333;BMP180;7766;51.534;6.722;2023-05-23T05:02:06;66029.41;;;-132.42
15333;BMP180;7766;51.534;6.722;2023-05-23T05:03:07;66029.41;;;-132.42
15333;BMP180;7766;51.534;6.722;2023-05-23T05:04:09;66029.41;;;-132.42
15333;BMP180;7766;51.534;6.722;2023-05-23T05:05:10;66029.41;;;-132.42
15333;BMP180;7766;51.534;6.722;2023-05-23T05:06:12;66029.41;;;-132.42
15333;BMP180;7766;51.534;6.722;2023-05-23T05:07:14;66029.41;;;-132.42
15333;BMP180;7766;51.534;6.722;2023-05-23T05:08:15;66029.41;;;-132.42
15333;BMP180;7766;51.534;6.722;2023-05-23T05:09:20;66029.41;;;-132.42
15333;BMP180;7766;51.534;6.722;2023-05-23T05:10:21;66029.41;;;-132.42
15333;BMP180;7766;51.534;6.722;2023-05-23T05:11:22;109487.78;;;185.33
15333;BMP180;7766;51.534;6.722;2023-05-23T05:12:23;66029.41;;;-132.42
15333;BMP180;7766;51.534;6.722;2023-05-23T05:13:24;66029.41;;;-132.42
15333;BMP180;7766;51.534;6.722;2023-05-23T05:14:26;66029.41;;;-132.42
15333;BMP180;7766;51.534;6.722;2023-05-23T05:15:27;66029.41;;;-132.42
15333;BMP180;7766;51.534;6.722;2023-05-23T05:16:28;66029.41;;;-132.42
15333;BMP180;7766;51.534;6.722;2023-05-23T05:17:29;66029.41;;;-132.42
15333;BMP180;7766;51.534;6.722;2023-05-23T05:18:30;66029.41;;;-132.42
15333;BMP180;7766;51.534;6.722;2023-05-23T05:19:31;66029.41;;;-132.42
15333;BMP180;7766;51.534;6.722;2023-05-23T05:20:33;66029.41;;;-132.42
15333;BMP180;7766;51.534;6.722;2023-05-23T05:21:34;66029.41;;;-132.42
15333;BMP180;7766;51.534;6.722;2023-05-23T05:22:39;66029.41;;;-132.42
15333;BMP180;7766;51.534;6.722;2023-05-23T05:23:41;66029.41;;;-132.42
15333;BMP180;7766;51.534;6.722;2023-05-23T05:24:43;66029.41;;;-132.42
15333;BMP180;7766;51.534;6.722;2023-05-23T05:25:44;66029.41;;;-132.42
15333;BMP180;7766;51.534;6.722;2023-05-23T05:26:46;66029.41;;;-132.42
15333;BMP180;7766;51.534;6.722;2023-05-23T05:27:47;66029.41;;;-132.42
15333;BMP180;7766;51.534;6.722;2023-05-23T05:28:48;109487.78;;;-132.42
15333;BMP180;7766;51.534;6.722;2023-05-23T05:29:50;109487.78;;;185.33
15333;BMP180;7766;51.534;6.722;2023-05-23T05:30:51;101299.00;;;15.84
15333;BMP180;7766;51.534;6.722;2023-05-23T05:31:55;101297.56;;;15.81
15333;BMP180;7766;51.534;6.722;2023-05-23T05:32:56;-18060.69;;;185.33
15333;BMP180;7766;51.534;6.722;2023-05-23T05:33:58;66029.41;;;-132.42
15333;BMP180;7766;51.534;6.722;2023-05-23T05:34:59;66029.41;;;-132.42
15333;BMP180;7766;51.534;6.722;2023-05-23T05:36:05;66029.41;;;-132.42
15333;BMP180;7766;51.534;6.722;2023-05-23T05:37:06;66029.41;;;-132.42
15333;BMP180;7766;51.534;6.722;2023-05-23T05:38:07;66029.41;;;-132.42
15333;BMP180;7766;51.534;6.722;2023-05-23T05:39:11;66029.41;;;-132.42
15333;BMP180;7766;51.534;6.722;2023-05-23T05:40:13;66029.41;;;-132.42
15333;BMP180;7766;51.534;6.722;2023-05-23T05:41:13;66029.41;;;-132.42
15333;BMP180;7766;51.534;6.722;2023-05-23T05:42:14;66029.41;;;-132.42
15333;BMP180;7766;51.534;6.722;2023-05-23T05:43:15;66029.41;;;-132.42
15333;BMP180;7766;51.534;6.722;2023-05-23T05:44:16;66029.41;;;-132.42
15333;BMP180;7766;51.534;6.722;2023-05-23T05:45:18;66029.41;;;-132.42
15333;BMP180;7766;51.534;6.722;2023-05-23T05:46:19;66029.41;;;-132.42
15333;BMP180;7766;51.534;6.722;2023-05-23T05:47:20;66029.41;;;-132.42
15333;BMP180;7766;51.534;6.722;2023-05-23T05:48:21;66029.41;;;-132.42
15333;BMP180;7766;51.534;6.722;2023-05-23T05:49:22;66029.41;;;-132.42
15333;BMP180;7766;51.534;6.722;2023-05-23T05:50:23;66029.41;;;-132.42
15333;BMP180;7766;51.534;6.722;2023-05-23T05:51:24;66029.41;;;-132.42
15333;BMP180;7766;51.534;6.722;2023-05-23T05:52:25;66029.41;;;-132.42
15333;BMP180;7766;51.534;6.722;2023-05-23T05:53:26;66029.41;;;-132.42
15333;BMP180;7766;51.534;6.722;2023-05-23T05:54:27;66029.41;;;-132.42
15333;BMP180;7766;51.534;6.722;2023-05-23T05:55:28;66029.41;;;-132.42
15333;BMP180;7766;51.534;6.722;2023-05-23T05:56:29;66029.41;;;-132.42
15333;BMP180;7766;51.534;6.722;2023-05-23T05:57:30;66029.41;;;-132.42
15333;BMP180;7766;51.534;6.722;2023-05-23T05:58:31;66029.41;;;-132.42
15333;BMP180;7766;51.534;6.722;2023-05-23T05:59:32;66029.41;;;-132.42